sensor_id;sensor_type;location;lat;lon;timestamp;pressure;altitude;pressure_sealevel;temperature;humidity
22096;BME280;24083;55.670;37.568;2023-05-11T00:01:13;99547.75;;;16.79;56.60
22096;BME280;24083;55.670;37.568;2023-05-11T00:03:39;99557.03;;;16.31;57.21
22096;BME280;24083;55.670;37.568;2023-05-11T00:09:20;99548.91;;;16.87;56.41
22096;BME280;24083;55.670;37.568;2023-05-11T00:11:47;99555.97;;;16.34;56.72
22096;BME280;24083;55.670;37.568;2023-05-11T00:14:23;99549.78;;;16.88;56.75
22096;BME280;24083;55.670;37.568;2023-05-11T00:16:54;99548.69;;;16.65;56.87
22096;BME280;24083;55.670;37.568;2023-05-11T00:19:26;99559.25;;;16.77;56.75
22096;BME280;24083;55.670;37.568;2023-05-11T00:21:53;99556.13;;;16.17;57.78
22096;BME280;24083;55.670;37.568;2023-05-11T00:24:19;99550.22;;;16.41;57.64
22096;BME280;24083;55.670;37.568;2023-05-11T00:26:54;99551.41;;;16.63;57.44
22096;BME280;24083;55.670;37.568;2023-05-11T00:29:24;99551.56;;;16.34;57.91
22096;BME280;24083;55.670;37.568;2023-05-11T00:31:49;99550.94;;;16.43;57.54
22096;BME280;24083;55.670;37.568;2023-05-11T00:34:30;99556.81;;;16.34;57.96
22096;BME280;24083;55.670;37.568;2023-05-11T00:39:54;99552.75;;;16.15;58.66
22096;BME280;24083;55.670;37.568;2023-05-11T00:42:20;99549.94;;;16.59;58.14
22096;BME280;24083;55.670;37.568;2023-05-11T00:44:46;99545.75;;;16.69;57.71
22096;BME280;24083;55.670;37.568;2023-05-11T00:47:16;99546.63;;;16.83;57.53
22096;BME280;24083;55.670;37.568;2023-05-11T00:49:42;99548.38;;;16.29;57.68
22096;BME280;24083;55.670;37.568;2023-05-11T00:52:10;99557.03;;;16.31;58.20
22096;BME280;24083;55.670;37.568;2023-05-11T00:54:37;99552.44;;;15.93;58.22
22096;BME280;24083;55.670;37.568;2023-05-11T00:57:11;99553.84;;;16.26;58.54
22096;BME280;24083;55.670;37.568;2023-05-11T01:05:40;99560.34;;;16.20;58.62
22096;BME280;24083;55.670;37.568;2023-05-11T01:08:16;99559.69;;;16.16;58.18
22096;BME280;24083;55.670;37.568;2023-05-11T01:10:55;99558.72;;;16.32;58.89
22096;BME280;24083;55.670;37.568;2023-05-11T01:13:30;99568.22;;;15.64;59.14
22096;BME280;24083;55.670;37.568;2023-05-11T01:16:26;99573.75;;;16.30;59.62
22096;BME280;24083;55.670;37.568;2023-05-11T01:21:29;99562.28;;;16.71;58.76
22096;BME280;24083;55.670;37.568;2023-05-11T01:24:02;99565.78;;;15.75;59.19
22096;BME280;24083;55.670;37.568;2023-05-11T01:38:42;99568.41;;;15.61;60.05
22096;BME280;24083;55.670;37.568;2023-05-11T01:41:22;99573.66;;;15.61;60.57
22096;BME280;24083;55.670;37.568;2023-05-11T01:43:53;99574.09;;;16.38;60.13
22096;BME280;24083;55.670;37.568;2023-05-11T01:46:29;99576.50;;;15.86;60.09
22096;BME280;24083;55.670;37.568;2023-05-11T01:48:58;99574.88;;;16.26;60.38
22096;BME280;24083;55.670;37.568;2023-05-11T01:51:25;99569.44;;;15.87;60.00
22096;BME280;24083;55.670;37.568;2023-05-11T01:53:52;99566.34;;;15.51;60.97
22096;BME280;24083;55.670;37.568;2023-05-11T02:05:25;99560.25;;;16.22;60.22
22096;BME280;24083;55.670;37.568;2023-05-11T02:07:57;99566.00;;;15.28;60.86
22096;BME280;24083;55.670;37.568;2023-05-11T02:13:25;99563.97;;;16.05;60.29
22096;BME280;24083;55.670;37.568;2023-05-11T02:15:51;99569.53;;;15.85;59.96
22096;BME280;24083;55.670;37.568;2023-05-11T02:18:25;99558.16;;;15.70;60.41
22096;BME280;24083;55.670;37.568;2023-05-11T02:23:28;99563.31;;;16.28;60.30
22096;BME280;24083;55.670;37.568;2023-05-11T02:25:59;99558.13;;;15.28;60.67
22096;BME280;24083;55.670;37.568;2023-05-11T02:28:28;99564.66;;;15.65;61.01
22096;BME280;24083;55.670;37.568;2023-05-11T02:30:55;99565.72;;;16.59;60.07
22096;BME280;24083;55.670;37.568;2023-05-11T02:33:30;99562.22;;;15.76;60.28
22096;BME280;24083;55.670;37.568;2023-05-11T02:36:04;99564.53;;;15.81;60.67
22096;BME280;24083;55.670;37.568;2023-05-11T02:38:34;99564.88;;;15.33;61.03
22096;BME280;24083;55.670;37.568;2023-05-11T02:41:31;99566.69;;;15.02;61.37
22096;BME280;24083;55.670;37.568;2023-05-11T02:44:00;99577.16;;;14.87;62.72
22096;BME280;24083;55.670;37.568;2023-05-11T02:46:36;99577.44;;;14.82;62.71
22096;BME280;24083;55.670;37.568;2023-05-11T02:49:07;99574.31;;;16.35;61.89
22096;BME280;24083;55.670;37.568;2023-05-11T02:51:38;99574.41;;;15.63;62.10
22096;BME280;24083;55.670;37.568;2023-05-11T02:54:07;99582.75;;;16.40;62.19
22096;BME280;24083;55.670;37.568;2023-05-11T02:56:42;99577.97;;;15.76;61.57
22096;BME280;24083;55.670;37.568;2023-05-11T02:59:10;99584.66;;;16.24;61.69
22096;BME280;24083;55.670;37.568;2023-05-11T03:01:37;99583.97;;;15.93;62.25
22096;BME280;24083;55.670;37.568;2023-05-11T03:04:04;99581.03;;;16.39;62.38
22096;BME280;24083;55.670;37.568;2023-05-11T03:06:30;99577.56;;;16.11;61.54
22096;BME280;24083;55.670;37.568;2023-05-11T03:09:01;99577.88;;;16.87;61.33
22096;BME280;24083;55.670;37.568;2023-05-11T03:11:35;99585.56;;;16.77;61.51
22096;BME280;24083;55.670;37.568;2023-05-11T03:14:01;99585.69;;;15.65;62.48
22096;BME280;24083;55.670;37.568;2023-05-11T03:16:36;99588.91;;;16.67;62.07
22096;BME280;24083;55.670;37.568;2023-05-11T03:19:06;99585.28;;;15.85;62.45
22096;BME280;24083;55.670;37.568;2023-05-11T03:21:32;99595.06;;;15.40;63.63
22096;BME280;24083;55.670;37.568;2023-05-11T03:23:59;99589.22;;;16.07;62.55
22096;BME280;24083;55.670;37.568;2023-05-11T03:26:29;99591.06;;;16.20;62.60
22096;BME280;24083;55.670;37.568;2023-05-11T03:29:51;99595.75;;;16.69;62.68
22096;BME280;24083;55.670;37.568;2023-05-11T03:32:18;99597.56;;;16.82;62.23
22096;BME280;24083;55.670;37.568;2023-05-11T03:34:44;99603.06;;;16.91;62.33
22096;BME280;24083;55.670;37.568;2023-05-11T03:37:12;99609.00;;;16.95;62.59
22096;BME280;24083;55.670;37.568;2023-05-11T03:39:41;99602.03;;;16.94;62.40
22096;BME280;24083;55.670;37.568;2023-05-11T03:42:11;99606.69;;;17.03;62.11
22096;BME280;24083;55.670;37.568;2023-05-11T03:47:12;99613.84;;;17.01;62.77
22096;BME280;24083;55.670;37.568;2023-05-11T03:49:50;99607.97;;;17.11;62.51
22096;BME280;24083;55.670;37.568;2023-05-11T03:52:28;99605.88;;;17.42;62.28
22096;BME280;24083;55.670;37.568;2023-05-11T03:57:47;99618.50;;;17.62;61.90
22096;BME280;24083;55.670;37.568;2023-05-11T04:03:07;99617.81;;;16.26;63.40
22096;BME280;24083;55.670;37.568;2023-05-11T04:05:50;99611.78;;;17.32;62.44
22096;BME280;24083;55.670;37.568;2023-05-11T04:08:17;99613.03;;;17.53;62.50
22096;BME280;24083;55.670;37.568;2023-05-11T04:10:53;99608.06;;;17.22;62.24
22096;BME280;24083;55.670;37.568;2023-05-11T04:13:20;99622.72;;;17.52;61.60
22096;BME280;24083;55.670;37.568;2023-05-11T04:15:45;99613.41;;;17.85;62.20
22096;BME280;24083;55.670;37.568;2023-05-11T04:18:15;99620.13;;;18.64;60.96
22096;BME280;24083;55.670;37.568;2023-05-11T04:20:41;99609.59;;;18.02;60.20
22096;BME280;24083;55.670;37.568;2023-05-11T04:23:14;99617.97;;;18.20;60.61
22096;BME280;24083;55.670;37.568;2023-05-11T04:25:40;99619.09;;;17.92;60.30
22096;BME280;24083;55.670;37.568;2023-05-11T04:30:35;99625.47;;;17.38;60.13
22096;BME280;24083;55.670;37.568;2023-05-11T04:33:10;99628.16;;;16.97;61.51
22096;BME280;24083;55.670;37.568;2023-05-11T04:38:57;99631.16;;;17.31;61.80
22096;BME280;24083;55.670;37.568;2023-05-11T04:41:34;99625.81;;;18.09;60.44
22096;BME280;24083;55.670;37.568;2023-05-11T04:44:04;99625.44;;;18.02;60.80
22096;BME280;24083;55.670;37.568;2023-05-11T04:52:42;99629.78;;;18.28;60.20
22096;BME280;24083;55.670;37.568;2023-05-11T04:55:20;99629.06;;;18.50;60.04
22096;BME280;24083;55.670;37.568;2023-05-11T05:01:06;99621.22;;;17.74;60.66
22096;BME280;24083;55.670;37.568;2023-05-11T05:03:32;99628.19;;;17.75;59.79
22096;BME280;24083;55.670;37.568;2023-05-11T05:09:41;99623.44;;;18.79;59.73
22096;BME280;24083;55.670;37.568;2023-05-11T05:32:20;99613.16;;;19.46;58.74
22096;BME280;24083;55.670;37.568;2023-05-11T05:38:05;99618.47;;;18.98;58.57
22096;BME280;24083;55.670;37.568;2023-05-11T05:41:05;99615.03;;;18.49;59.00
22096;BME280;24083;55.670;37.568;2023-05-11T05:43:48;99603.56;;;19.56;57.95
22096;BME280;24083;55.670;37.568;2023-05-11T05:49:13;99614.09;;;18.37;58.24
22096;BME280;24083;55.670;37.568;2023-05-11T05:54:56;99610.22;;;19.03;56.54
22096;BME280;24083;55.670;37.568;2023-05-11T05:57:22;99605.81;;;19.49;56.36
22096;BME280;24083;55.670;37.568;2023-05-11T06:02:38;99603.53;;;19.67;55.15
22096;BME280;24083;55.670;37.568;2023-05-11T06:05:12;99609.28;;;19.61;55.45
22096;BME280;24083;55.670;37.568;2023-05-11T06:07:41;99605.53;;;20.21;55.14
22096;BME280;24083;55.670;37.568;2023-05-11T06:10:11;99600.34;;;20.30;54.67
22096;BME280;24083;55.670;37.568;2023-05-11T06:12:37;99605.69;;;21.05;53.63
22096;BME280;24083;55.670;37.568;2023-05-11T06:15:13;99597.41;;;21.72;53.92
22096;BME280;24083;55.670;37.568;2023-05-11T06:18:09;99604.00;;;19.84;53.13
22096;BME280;24083;55.670;37.568;2023-05-11T06:20:36;99608.59;;;20.70;53.29
22096;BME280;24083;55.670;37.568;2023-05-11T06:25:59;99617.91;;;20.64;53.00
22096;BME280;24083;55.670;37.568;2023-05-11T06:28:29;99622.69;;;20.38;52.82
22096;BME280;24083;55.670;37.568;2023-05-11T06:31:00;99622.81;;;20.69;52.94
22096;BME280;24083;55.670;37.568;2023-05-11T06:33:35;99623.72;;;21.12;52.21
22096;BME280;24083;55.670;37.568;2023-05-11T06:36:04;99623.34;;;20.63;52.45
22096;BME280;24083;55.670;37.568;2023-05-11T06:38:40;99624.13;;;20.42;52.94
22096;BME280;24083;55.670;37.568;2023-05-11T06:41:07;99626.41;;;19.91;53.33
22096;BME280;24083;55.670;37.568;2023-05-11T06:46:44;99618.34;;;20.48;53.72
22096;BME280;24083;55.670;37.568;2023-05-11T06:49:11;99617.72;;;19.66;53.37
22096;BME280;24083;55.670;37.568;2023-05-11T06:51:38;99621.09;;;19.91;54.35
22096;BME280;24083;55.670;37.568;2023-05-11T06:56:36;99613.38;;;21.61;52.99
22096;BME280;24083;55.670;37.568;2023-05-11T06:59:17;99614.81;;;21.65;52.64
22096;BME280;24083;55.670;37.568;2023-05-11T07:01:44;99611.09;;;20.50;52.97
22096;BME280;24083;55.670;37.568;2023-05-11T07:07:23;99624.75;;;21.20;53.72
22096;BME280;24083;55.670;37.568;2023-05-11T07:13:34;99621.00;;;21.02;52.49
22096;BME280;24083;55.670;37.568;2023-05-11T07:18:54;99608.84;;;21.73;51.68
22096;BME280;24083;55.670;37.568;2023-05-11T07:21:24;99613.00;;;21.13;52.42
22096;BME280;24083;55.670;37.568;2023-05-11T07:23:52;99610.50;;;21.64;51.63
22096;BME280;24083;55.670;37.568;2023-05-11T07:26:31;99619.88;;;21.68;52.18
22096;BME280;24083;55.670;37.568;2023-05-11T07:29:00;99616.69;;;20.36;52.48
22096;BME280;24083;55.670;37.568;2023-05-11T07:34:50;99605.50;;;21.81;51.85
22096;BME280;24083;55.670;37.568;2023-05-11T07:37:26;99608.44;;;22.38;51.18
22096;BME280;24083;55.670;37.568;2023-05-11T07:39:54;99607.31;;;22.41;50.85
22096;BME280;24083;55.670;37.568;2023-05-11T07:42:20;99610.22;;;22.37;50.89
22096;BME280;24083;55.670;37.568;2023-05-11T07:44:49;99605.34;;;22.23;51.15
22096;BME280;24083;55.670;37.568;2023-05-11T07:50:12;99606.03;;;21.12;51.56
22096;BME280;24083;55.670;37.568;2023-05-11T07:52:51;99608.03;;;20.34;52.67
22096;BME280;24083;55.670;37.568;2023-05-11T07:55:40;99599.63;;;21.77;51.71
22096;BME280;24083;55.670;37.568;2023-05-11T08:23:39;99600.50;;;20.50;52.80
22096;BME280;24083;55.670;37.568;2023-05-11T08:26:11;99594.50;;;21.02;52.80
22096;BME280;24083;55.670;37.568;2023-05-11T08:50:02;99589.16;;;20.59;53.48
22096;BME280;24083;55.670;37.568;2023-05-11T08:52:35;99581.41;;;19.91;54.07
22096;BME280;24083;55.670;37.568;2023-05-11T10:12:24;99514.78;;;22.36;49.99
22096;BME280;24083;55.670;37.568;2023-05-11T10:15:00;99525.72;;;19.93;52.62
22096;BME280;24083;55.670;37.568;2023-05-11T10:17:27;99534.88;;;18.50;55.16
22096;BME280;24083;55.670;37.568;2023-05-11T10:22:59;99589.16;;;16.76;64.72
22096;BME280;24083;55.670;37.568;2023-05-11T10:25:26;99614.75;;;16.05;66.38
22096;BME280;24083;55.670;37.568;2023-05-11T11:11:57;99543.81;;;21.88;97.84
22096;BME280;24083;55.670;37.568;2023-05-11T11:14:52;99533.25;;;22.18;94.53
22096;BME280;24083;55.670;37.568;2023-05-11T11:17:28;99537.69;;;22.27;89.07
22096;BME280;24083;55.670;37.568;2023-05-11T11:39:46;99580.19;;;19.84;75.88
22096;BME280;24083;55.670;37.568;2023-05-11T11:54:53;99634.09;;;17.14;100.00
22096;BME280;24083;55.670;37.568;2023-05-11T12:06:04;99649.84;;;16.33;100.00
22096;BME280;24083;55.670;37.568;2023-05-11T12:11:28;99627.31;;;16.56;100.00
22096;BME280;24083;55.670;37.568;2023-05-11T12:36:16;99556.09;;;20.75;100.00
22096;BME280;24083;55.670;37.568;2023-05-11T12:44:38;99536.41;;;23.38;92.92
22096;BME280;24083;55.670;37.568;2023-05-11T12:47:13;99525.88;;;22.98;93.33
22096;BME280;24083;55.670;37.568;2023-05-11T13:16:52;99510.34;;;29.31;63.16
22096;BME280;24083;55.670;37.568;2023-05-11T13:19:28;99509.63;;;27.61;61.91
22096;BME280;24083;55.670;37.568;2023-05-11T13:25:23;99521.25;;;23.48;65.55
22096;BME280;24083;55.670;37.568;2023-05-11T13:37:56;99506.31;;;24.11;63.46
22096;BME280;24083;55.670;37.568;2023-05-11T13:51:25;99493.56;;;27.21;60.13
22096;BME280;24083;55.670;37.568;2023-05-11T13:54:01;99497.91;;;25.56;59.68
22096;BME280;24083;55.670;37.568;2023-05-11T13:56:32;99497.03;;;26.32;59.55
22096;BME280;24083;55.670;37.568;2023-05-11T13:59:04;99492.63;;;27.37;59.17
22096;BME280;24083;55.670;37.568;2023-05-11T14:13:58;99488.31;;;26.05;58.81
22096;BME280;24083;55.670;37.568;2023-05-11T14:20:19;99485.91;;;24.91;61.36
22096;BME280;24083;55.670;37.568;2023-05-11T14:22:46;99489.47;;;25.86;63.32
22096;BME280;24083;55.670;37.568;2023-05-11T14:29:05;99474.56;;;24.81;61.56
22096;BME280;24083;55.670;37.568;2023-05-11T14:34:25;99477.63;;;26.63;60.92
22096;BME280;24083;55.670;37.568;2023-05-11T14:55:35;99480.34;;;26.46;58.31
22096;BME280;24083;55.670;37.568;2023-05-11T14:58:04;99485.63;;;25.37;58.65
22096;BME280;24083;55.670;37.568;2023-05-11T15:04:27;99460.25;;;27.63;57.68
22096;BME280;24083;55.670;37.568;2023-05-11T15:18:56;99466.78;;;24.69;58.09
22096;BME280;24083;55.670;37.568;2023-05-11T15:30:40;99453.66;;;27.03;53.87
22096;BME280;24083;55.670;37.568;2023-05-11T15:37:42;99458.78;;;23.89;57.90
22096;BME280;24083;55.670;37.568;2023-05-11T15:40:12;99457.56;;;24.11;58.61
22096;BME280;24083;55.670;37.568;2023-05-11T15:42:52;99456.25;;;24.86;58.50
22096;BME280;24083;55.670;37.568;2023-05-11T15:45:22;99458.06;;;24.59;57.74
22096;BME280;24083;55.670;37.568;2023-05-11T15:47:54;99457.53;;;23.29;60.46
22096;BME280;24083;55.670;37.568;2023-05-11T15:50:24;99455.88;;;24.10;59.97
22096;BME280;24083;55.670;37.568;2023-05-11T15:52:50;99455.25;;;24.42;59.58
22096;BME280;24083;55.670;37.568;2023-05-11T15:58:12;99461.03;;;24.56;59.75
22096;BME280;24083;55.670;37.568;2023-05-11T16:00:52;99470.38;;;24.15;60.87
22096;BME280;24083;55.670;37.568;2023-05-11T16:06:56;99473.53;;;25.08;61.18
22096;BME280;24083;55.670;37.568;2023-05-11T16:15:07;99479.97;;;22.29;65.14
22096;BME280;24083;55.670;37.568;2023-05-11T16:20:24;99476.63;;;20.75;70.35
22096;BME280;24083;55.670;37.568;2023-05-11T16:23:00;99482.78;;;20.00;72.07
22096;BME280;24083;55.670;37.568;2023-05-11T16:32:00;99474.28;;;19.07;76.45
22096;BME280;24083;55.670;37.568;2023-05-11T16:37:11;99478.66;;;18.84;75.38
22096;BME280;24083;55.670;37.568;2023-05-11T16:39:50;99481.13;;;19.77;76.64
22096;BME280;24083;55.670;37.568;2023-05-11T16:42:18;99475.19;;;20.71;75.17
22096;BME280;24083;55.670;37.568;2023-05-11T16:44:47;99471.00;;;21.20;74.39
22096;BME280;24083;55.670;37.568;2023-05-11T16:47:16;99478.72;;;21.94;71.99
22096;BME280;24083;55.670;37.568;2023-05-11T16:49:42;99479.38;;;21.67;72.16
22096;BME280;24083;55.670;37.568;2023-05-11T16:52:10;99484.09;;;20.06;73.75
22096;BME280;24083;55.670;37.568;2023-05-11T16:58:25;99488.09;;;19.78;75.37
22096;BME280;24083;55.670;37.568;2023-05-11T17:08:13;99503.59;;;19.94;75.25
22096;BME280;24083;55.670;37.568;2023-05-11T17:10:42;99499.34;;;19.47;73.84
22096;BME280;24083;55.670;37.568;2023-05-11T17:13:15;99505.50;;;19.36;75.70
22096;BME280;24083;55.670;37.568;2023-05-11T17:15:46;99510.72;;;19.93;74.61
22096;BME280;24083;55.670;37.568;2023-05-11T17:18:31;99520.56;;;20.02;74.68
22096;BME280;24083;55.670;37.568;2023-05-11T17:21:25;99525.63;;;19.71;76.20
22096;BME280;24083;55.670;37.568;2023-05-11T17:23:55;99532.63;;;19.27;76.62
22096;BME280;24083;55.670;37.568;2023-05-11T17:26:27;99532.97;;;19.00;77.58
22096;BME280;24083;55.670;37.568;2023-05-11T17:28:57;99530.97;;;19.03;78.34
22096;BME280;24083;55.670;37.568;2023-05-11T17:31:29;99528.13;;;18.93;78.73
22096;BME280;24083;55.670;37.568;2023-05-11T17:49:52;99534.50;;;18.91;83.03
22096;BME280;24083;55.670;37.568;2023-05-11T17:56:18;99542.00;;;16.99;85.13
22096;BME280;24083;55.670;37.568;2023-05-11T18:04:44;99545.81;;;17.21;87.69
22096;BME280;24083;55.670;37.568;2023-05-11T18:07:38;99545.16;;;17.04;88.17
22096;BME280;24083;55.670;37.568;2023-05-11T18:25:49;99554.53;;;17.09;88.65
22096;BME280;24083;55.670;37.568;2023-05-11T18:28:15;99556.66;;;17.03;88.82
22096;BME280;24083;55.670;37.568;2023-05-11T18:30:44;99559.44;;;16.74;90.19
22096;BME280;24083;55.670;37.568;2023-05-11T18:33:20;99551.34;;;16.77;90.28
22096;BME280;24083;55.670;37.568;2023-05-11T18:35:51;99549.50;;;17.31;90.22
22096;BME280;24083;55.670;37.568;2023-05-11T18:38:19;99559.25;;;16.77;91.00
22096;BME280;24083;55.670;37.568;2023-05-11T18:40:48;99556.50;;;16.79;91.00
22096;BME280;24083;55.670;37.568;2023-05-11T18:49:46;99559.66;;;16.71;91.23
22096;BME280;24083;55.670;37.568;2023-05-11T19:06:13;99565.28;;;16.52;93.60
22096;BME280;24083;55.670;37.568;2023-05-11T19:09:44;99564.56;;;16.50;94.93
22096;BME280;24083;55.670;37.568;2023-05-11T19:12:10;99562.53;;;16.54;95.37
22096;BME280;24083;55.670;37.568;2023-05-11T19:17:59;99560.66;;;16.01;98.30
22096;BME280;24083;55.670;37.568;2023-05-11T19:20:25;99563.34;;;15.86;99.22
22096;BME280;24083;55.670;37.568;2023-05-11T19:22:53;99560.72;;;15.72;99.74
22096;BME280;24083;55.670;37.568;2023-05-11T19:28:21;99564.28;;;15.42;100.00
22096;BME280;24083;55.670;37.568;2023-05-11T19:30:57;99565.78;;;15.46;100.00
22096;BME280;24083;55.670;37.568;2023-05-11T19:34:07;99566.34;;;15.66;100.00
22096;BME280;24083;55.670;37.568;2023-05-11T19:43:17;99561.63;;;16.00;100.00
22096;BME280;24083;55.670;37.568;2023-05-11T19:48:25;99564.53;;;16.10;100.00
22096;BME280;24083;55.670;37.568;2023-05-11T19:53:39;99570.84;;;15.49;100.00
22096;BME280;24083;55.670;37.568;2023-05-11T20:05:38;99572.72;;;15.47;100.00
22096;BME280;24083;55.670;37.568;2023-05-11T20:10:59;99581.00;;;15.26;100.00
22096;BME280;24083;55.670;37.568;2023-05-11T20:13:38;99579.88;;;15.45;100.00
22096;BME280;24083;55.670;37.568;2023-05-11T20:16:08;99580.22;;;15.97;100.00
22096;BME280;24083;55.670;37.568;2023-05-11T20:22:22;99574.19;;;14.93;100.00
22096;BME280;24083;55.670;37.568;2023-05-11T20:24:52;99575.88;;;14.94;100.00
22096;BME280;24083;55.670;37.568;2023-05-11T20:27:18;99572.38;;;15.24;100.00
22096;BME280;24083;55.670;37.568;2023-05-11T20:32:29;99561.28;;;15.05;100.00
22096;BME280;24083;55.670;37.568;2023-05-11T20:34:58;99560.91;;;15.11;100.00
22096;BME280;24083;55.670;37.568;2023-05-11T20:37:25;99559.25;;;15.24;100.00
22096;BME280;24083;55.670;37.568;2023-05-11T20:42:25;99547.00;;;15.67;100.00
22096;BME280;24083;55.670;37.568;2023-05-11T20:47:30;99552.06;;;14.83;100.00
22096;BME280;24083;55.670;37.568;2023-05-11T20:49:59;99544.28;;;15.10;100.00
22096;BME280;24083;55.670;37.568;2023-05-11T20:52:26;99541.97;;;15.06;100.00
22096;BME280;24083;55.670;37.568;2023-05-11T20:54:51;99529.22;;;15.14;100.00
22096;BME280;24083;55.670;37.568;2023-05-11T20:57:19;99532.03;;;15.25;100.00
22096;BME280;24083;55.670;37.568;2023-05-11T20:59:47;99526.00;;;15.38;100.00
22096;BME280;24083;55.670;37.568;2023-05-11T21:02:18;99522.81;;;15.62;100.00
22096;BME280;24083;55.670;37.568;2023-05-11T21:04:50;99524.31;;;15.66;100.00
22096;BME280;24083;55.670;37.568;2023-05-11T21:07:16;99526.72;;;15.83;100.00
22096;BME280;24083;55.670;37.568;2023-05-11T21:12:12;99543.28;;;15.42;100.00
22096;BME280;24083;55.670;37.568;2023-05-11T21:14:37;99544.47;;;14.62;100.00
22096;BME280;24083;55.670;37.568;2023-05-11T21:17:03;99545.34;;;15.37;100.00
22096;BME280;24083;55.670;37.568;2023-05-11T21:19:28;99555.41;;;14.71;100.00
22096;BME280;24083;55.670;37.568;2023-05-11T21:21:55;99549.88;;;14.75;100.00
22096;BME280;24083;55.670;37.568;2023-05-11T21:24:21;99556.19;;;14.40;100.00
22096;BME280;24083;55.670;37.568;2023-05-11T21:26:48;99553.19;;;14.93;100.00
22096;BME280;24083;55.670;37.568;2023-05-11T21:29:14;99553.56;;;15.02;100.00
22096;BME280;24083;55.670;37.568;2023-05-11T21:31:41;99560.66;;;14.24;100.00
22096;BME280;24083;55.670;37.568;2023-05-11T21:34:08;99565.53;;;14.30;100.00
22096;BME280;24083;55.670;37.568;2023-05-11T21:36:33;99566.19;;;14.34;100.00
22096;BME280;24083;55.670;37.568;2023-05-11T21:39:04;99567.50;;;14.10;100.00
22096;BME280;24083;55.670;37.568;2023-05-11T21:41:30;99562.47;;;14.38;100.00
22096;BME280;24083;55.670;37.568;2023-05-11T21:44:11;99566.91;;;14.05;100.00
22096;BME280;24083;55.670;37.568;2023-05-11T21:46:39;99560.81;;;14.21;100.00
22096;BME280;24083;55.670;37.568;2023-05-11T21:49:06;99563.19;;;14.56;100.00
22096;BME280;24083;55.670;37.568;2023-05-11T21:51:32;99555.47;;;15.14;100.00
22096;BME280;24083;55.670;37.568;2023-05-11T21:54:06;99560.31;;;14.30;100.00
22096;BME280;24083;55.670;37.568;2023-05-11T21:56:32;99560.47;;;14.27;100.00
22096;BME280;24083;55.670;37.568;2023-05-11T21:59:02;99558.22;;;14.35;100.00
22096;BME280;24083;55.670;37.568;2023-05-11T22:01:28;99557.84;;;14.58;100.00
22096;BME280;24083;55.670;37.568;2023-05-11T22:04:04;99558.06;;;14.38;100.00
22096;BME280;24083;55.670;37.568;2023-05-11T22:06:31;99565.16;;;14.52;100.00
22096;BME280;24083;55.670;37.568;2023-05-11T22:08:58;99559.81;;;14.54;100.00
22096;BME280;24083;55.670;37.568;2023-05-11T22:11:25;99564.25;;;14.37;100.00
22096;BME280;24083;55.670;37.568;2023-05-11T22:13:52;99558.66;;;15.05;100.00
22096;BME280;24083;55.670;37.568;2023-05-11T22:16:18;99555.44;;;14.99;100.00
22096;BME280;24083;55.670;37.568;2023-05-11T22:18:52;99563.56;;;14.80;100.00
22096;BME280;24083;55.670;37.568;2023-05-11T22:21:19;99559.78;;;14.23;100.00
22096;BME280;24083;55.670;37.568;2023-05-11T22:32:34;99563.09;;;14.58;100.00
22096;BME280;24083;55.670;37.568;2023-05-11T22:35:07;99564.59;;;14.62;100.00
22096;BME280;24083;55.670;37.568;2023-05-11T22:37:33;99552.75;;;15.01;100.00
22096;BME280;24083;55.670;37.568;2023-05-11T22:40:12;99555.41;;;14.85;100.00
22096;BME280;24083;55.670;37.568;2023-05-11T22:42:41;99552.94;;;14.67;100.00
22096;BME280;24083;55.670;37.568;2023-05-11T22:45:13;99556.91;;;14.75;100.00
22096;BME280;24083;55.670;37.568;2023-05-11T22:47:49;99558.97;;;14.84;100.00
22096;BME280;24083;55.670;37.568;2023-05-11T22:53:55;99561.28;;;14.44;100.00
22096;BME280;24083;55.670;37.568;2023-05-11T22:59:14;99548.72;;;15.10;100.00
22096;BME280;24083;55.670;37.568;2023-05-11T23:04:12;99549.28;;;15.15;100.00
22096;BME280;24083;55.670;37.568;2023-05-11T23:06:53;99550.72;;;14.76;100.00
22096;BME280;24083;55.670;37.568;2023-05-11T23:09:19;99553.97;;;15.10;100.00
22096;BME280;24083;55.670;37.568;2023-05-11T23:11:45;99551.75;;;15.33;100.00
22096;BME280;24083;55.670;37.568;2023-05-11T23:14:12;99552.38;;;15.51;100.00
22096;BME280;24083;55.670;37.568;2023-05-11T23:19:08;99555.66;;;15.11;100.00
22096;BME280;24083;55.670;37.568;2023-05-11T23:24:04;99552.88;;;15.28;100.00
22096;BME280;24083;55.670;37.568;2023-05-11T23:26:29;99557.72;;;15.49;100.00
22096;BME280;24083;55.670;37.568;2023-05-11T23:28:56;99563.94;;;14.58;100.00
22096;BME280;24083;55.670;37.568;2023-05-11T23:31:26;99556.91;;;14.75;100.00
22096;BME280;24083;55.670;37.568;2023-05-11T23:33:54;99558.88;;;14.55;100.00
22096;BME280;24083;55.670;37.568;2023-05-11T23:36:19;99559.06;;;14.52;100.00
22096;BME280;24083;55.670;37.568;2023-05-11T23:38:46;99562.00;;;14.15;100.00
22096;BME280;24083;55.670;37.568;2023-05-11T23:41:11;99552.25;;;14.80;100.00
22096;BME280;24083;55.670;37.568;2023-05-11T23:43:38;99555.84;;;14.47;100.00
22096;BME280;24083;55.670;37.568;2023-05-11T23:46:03;99561.44;;;14.40;100.00
22096;BME280;24083;55.670;37.568;2023-05-11T23:48:29;99550.06;;;14.56;100.00
22096;BME280;24083;55.670;37.568;2023-05-11T23:50:57;99561.16;;;14.15;100.00
22096;BME280;24083;55.670;37.568;2023-05-11T23:53:31;99557.44;;;14.19;100.00
